Speegleville, Texas
Current Conditions -  °F | °C
As of 12:51 PM on Thursday 23 Oct 2014 (Local Time) from KACT Reporting Station
Few Clouds Few Clouds  
Wind Chill: 24°   Ceiling: Unl
Heat Index: 24°   Visibility: 10mi
Dew Point: 14°   Wind: 6mph
Humidity: 52%   Direction: NA
Pressure: 30.14"   Gusts: NA
Location:  31.5356°N, 97.1921°W
Report Text: KACT 231751Z VRB05KT 10SM FEW120 24/14 A3014 RMK AO2 SLP201 T02440139 10244 20172 58005
Loading
Personal Weather Stations






























Interactive Weather Map
Tropical Storm Tracking
New forecast layout! Learn more

10-Day Weather Forecast

Advertisements
Track Severe Weather on mobile